sensor_id;sensor_type;location;lat;lon;timestamp;temperature;humidity
46608;DHT22;32330;51.936;7.184;2024-02-16T00:02:23;11.40;99.90
46608;DHT22;32330;51.936;7.184;2024-02-16T00:04:50;11.30;99.90
46608;DHT22;32330;51.936;7.184;2024-02-16T00:07:17;11.30;99.90
46608;DHT22;32330;51.936;7.184;2024-02-16T00:09:44;11.30;99.90
46608;DHT22;32330;51.936;7.184;2024-02-16T00:12:13;11.30;99.90
46608;DHT22;32330;51.936;7.184;2024-02-16T00:14:40;11.30;99.90
46608;DHT22;32330;51.936;7.184;2024-02-16T00:17:07;11.30;99.90
46608;DHT22;32330;51.936;7.184;2024-02-16T00:19:35;11.20;99.90
46608;DHT22;32330;51.936;7.184;2024-02-16T00:22:03;11.20;99.90
46608;DHT22;32330;51.936;7.184;2024-02-16T00:24:30;11.20;99.90
46608;DHT22;32330;51.936;7.184;2024-02-16T00:26:57;11.20;99.90
46608;DHT22;32330;51.936;7.184;2024-02-16T00:29:25;11.20;99.90
46608;DHT22;32330;51.936;7.184;2024-02-16T00:31:52;11.10;99.90
46608;DHT22;32330;51.936;7.184;2024-02-16T00:34:20;11.10;99.90
46608;DHT22;32330;51.936;7.184;2024-02-16T00:36:47;11.20;99.90
46608;DHT22;32330;51.936;7.184;2024-02-16T00:39:14;11.10;99.90
46608;DHT22;32330;51.936;7.184;2024-02-16T00:41:41;11.10;99.90
46608;DHT22;32330;51.936;7.184;2024-02-16T00:44:08;11.10;99.90
46608;DHT22;32330;51.936;7.184;2024-02-16T00:46:37;11.20;99.90
46608;DHT22;32330;51.936;7.184;2024-02-16T00:49:04;11.10;99.90
46608;DHT22;32330;51.936;7.184;2024-02-16T00:51:31;11.20;99.90
46608;DHT22;32330;51.936;7.184;2024-02-16T00:53:58;11.20;99.90
46608;DHT22;32330;51.936;7.184;2024-02-16T00:56:25;11.20;99.90
46608;DHT22;32330;51.936;7.184;2024-02-16T00:58:52;11.20;99.90
46608;DHT22;32330;51.936;7.184;2024-02-16T01:01:19;11.20;99.90
46608;DHT22;32330;51.936;7.184;2024-02-16T01:03:49;11.10;99.90
46608;DHT22;32330;51.936;7.184;2024-02-16T01:06:17;11.10;99.90
46608;DHT22;32330;51.936;7.184;2024-02-16T01:08:45;11.20;99.90
46608;DHT22;32330;51.936;7.184;2024-02-16T01:11:12;11.20;99.90
46608;DHT22;32330;51.936;7.184;2024-02-16T01:13:39;11.20;99.90
46608;DHT22;32330;51.936;7.184;2024-02-16T01:16:07;11.20;99.90
46608;DHT22;32330;51.936;7.184;2024-02-16T01:18:35;11.20;99.90
46608;DHT22;32330;51.936;7.184;2024-02-16T01:21:04;11.20;99.90
46608;DHT22;32330;51.936;7.184;2024-02-16T01:23:31;11.20;99.90
46608;DHT22;32330;51.936;7.184;2024-02-16T01:25:58;11.20;99.90
46608;DHT22;32330;51.936;7.184;2024-02-16T01:28:26;11.20;99.90
46608;DHT22;32330;51.936;7.184;2024-02-16T01:30:53;11.20;99.90
46608;DHT22;32330;51.936;7.184;2024-02-16T01:33:22;11.20;99.90
46608;DHT22;32330;51.936;7.184;2024-02-16T01:35:49;11.20;99.90
46608;DHT22;32330;51.936;7.184;2024-02-16T01:38:17;11.20;99.90
46608;DHT22;32330;51.936;7.184;2024-02-16T01:40:47;11.20;99.90
46608;DHT22;32330;51.936;7.184;2024-02-16T01:43:18;11.20;99.90
46608;DHT22;32330;51.936;7.184;2024-02-16T01:45:46;11.10;99.90
46608;DHT22;32330;51.936;7.184;2024-02-16T01:48:14;11.10;99.90
46608;DHT22;32330;51.936;7.184;2024-02-16T01:50:42;11.20;99.90
46608;DHT22;32330;51.936;7.184;2024-02-16T01:53:10;11.10;99.90
46608;DHT22;32330;51.936;7.184;2024-02-16T01:55:39;11.10;99.90
46608;DHT22;32330;51.936;7.184;2024-02-16T01:58:07;11.00;99.90
46608;DHT22;32330;51.936;7.184;2024-02-16T02:00:34;11.00;99.90
46608;DHT22;32330;51.936;7.184;2024-02-16T02:03:01;11.00;99.90
46608;DHT22;32330;51.936;7.184;2024-02-16T02:05:29;11.00;99.90
46608;DHT22;32330;51.936;7.184;2024-02-16T02:07:56;10.90;99.90
46608;DHT22;32330;51.936;7.184;2024-02-16T02:10:23;10.90;99.90
46608;DHT22;32330;51.936;7.184;2024-02-16T02:12:51;10.90;99.90
46608;DHT22;32330;51.936;7.184;2024-02-16T02:15:19;10.90;99.90
46608;DHT22;32330;51.936;7.184;2024-02-16T02:17:46;10.90;99.90
46608;DHT22;32330;51.936;7.184;2024-02-16T02:20:13;10.80;99.90
46608;DHT22;32330;51.936;7.184;2024-02-16T02:22:42;10.90;99.90
46608;DHT22;32330;51.936;7.184;2024-02-16T02:25:09;10.90;99.90
46608;DHT22;32330;51.936;7.184;2024-02-16T02:27:36;10.80;99.90
46608;DHT22;32330;51.936;7.184;2024-02-16T02:30:05;10.80;99.90
46608;DHT22;32330;51.936;7.184;2024-02-16T02:32:32;10.80;99.90
46608;DHT22;32330;51.936;7.184;2024-02-16T02:35:01;10.80;99.90
46608;DHT22;32330;51.936;7.184;2024-02-16T02:37:29;10.80;99.90
46608;DHT22;32330;51.936;7.184;2024-02-16T02:39:58;10.80;99.90
46608;DHT22;32330;51.936;7.184;2024-02-16T02:42:25;10.80;99.90
46608;DHT22;32330;51.936;7.184;2024-02-16T02:44:53;10.80;99.90
46608;DHT22;32330;51.936;7.184;2024-02-16T02:47:20;10.80;99.90
46608;DHT22;32330;51.936;7.184;2024-02-16T02:49:47;10.80;99.90
46608;DHT22;32330;51.936;7.184;2024-02-16T02:52:14;10.80;99.90
46608;DHT22;32330;51.936;7.184;2024-02-16T02:54:41;10.90;99.90
46608;DHT22;32330;51.936;7.184;2024-02-16T02:57:10;10.90;99.90
46608;DHT22;32330;51.936;7.184;2024-02-16T02:59:37;10.90;99.90
46608;DHT22;32330;51.936;7.184;2024-02-16T03:02:04;10.90;99.90
46608;DHT22;32330;51.936;7.184;2024-02-16T03:04:31;10.90;99.90
46608;DHT22;32330;51.936;7.184;2024-02-16T03:06:59;10.90;99.90
46608;DHT22;32330;51.936;7.184;2024-02-16T03:09:26;10.90;99.90
46608;DHT22;32330;51.936;7.184;2024-02-16T03:11:53;10.90;99.90
46608;DHT22;32330;51.936;7.184;2024-02-16T03:14:21;10.90;99.90
46608;DHT22;32330;51.936;7.184;2024-02-16T03:16:48;10.90;99.90
46608;DHT22;32330;51.936;7.184;2024-02-16T03:19:15;11.00;99.90
46608;DHT22;32330;51.936;7.184;2024-02-16T03:21:42;11.00;99.90
46608;DHT22;32330;51.936;7.184;2024-02-16T03:24:09;10.90;99.90
46608;DHT22;32330;51.936;7.184;2024-02-16T03:26:36;10.90;99.90
46608;DHT22;32330;51.936;7.184;2024-02-16T03:29:03;10.90;99.90
46608;DHT22;32330;51.936;7.184;2024-02-16T03:31:32;11.00;99.90
46608;DHT22;32330;51.936;7.184;2024-02-16T03:34:00;11.00;99.90
46608;DHT22;32330;51.936;7.184;2024-02-16T03:36:27;11.00;99.90
46608;DHT22;32330;51.936;7.184;2024-02-16T03:38:54;10.90;99.90
46608;DHT22;32330;51.936;7.184;2024-02-16T03:41:22;11.00;99.90
46608;DHT22;32330;51.936;7.184;2024-02-16T03:43:49;10.90;99.90
46608;DHT22;32330;51.936;7.184;2024-02-16T03:46:17;10.90;99.90
46608;DHT22;32330;51.936;7.184;2024-02-16T03:48:45;10.90;99.90
46608;DHT22;32330;51.936;7.184;2024-02-16T03:51:12;10.90;99.90
46608;DHT22;32330;51.936;7.184;2024-02-16T03:53:39;10.90;99.90
46608;DHT22;32330;51.936;7.184;2024-02-16T03:56:06;10.90;99.90
46608;DHT22;32330;51.936;7.184;2024-02-16T03:58:35;10.90;99.90
46608;DHT22;32330;51.936;7.184;2024-02-16T04:01:03;10.80;99.90
46608;DHT22;32330;51.936;7.184;2024-02-16T04:03:31;10.90;99.90
46608;DHT22;32330;51.936;7.184;2024-02-16T04:05:59;10.90;99.90
46608;DHT22;32330;51.936;7.184;2024-02-16T04:08:27;10.90;99.90
46608;DHT22;32330;51.936;7.184;2024-02-16T04:10:54;10.90;99.90
46608;DHT22;32330;51.936;7.184;2024-02-16T04:13:21;11.00;99.90
46608;DHT22;32330;51.936;7.184;2024-02-16T04:15:48;10.90;99.90
46608;DHT22;32330;51.936;7.184;2024-02-16T04:18:15;11.00;99.90
46608;DHT22;32330;51.936;7.184;2024-02-16T04:20:44;11.00;99.90
46608;DHT22;32330;51.936;7.184;2024-02-16T04:23:13;11.00;99.90
46608;DHT22;32330;51.936;7.184;2024-02-16T04:25:40;10.90;99.90
46608;DHT22;32330;51.936;7.184;2024-02-16T04:28:07;11.00;99.90
46608;DHT22;32330;51.936;7.184;2024-02-16T04:30:35;10.90;99.90
46608;DHT22;32330;51.936;7.184;2024-02-16T04:33:02;11.00;99.90
46608;DHT22;32330;51.936;7.184;2024-02-16T04:35:30;10.90;99.90
46608;DHT22;32330;51.936;7.184;2024-02-16T04:37:57;10.90;99.90
46608;DHT22;32330;51.936;7.184;2024-02-16T04:40:25;10.90;99.90
46608;DHT22;32330;51.936;7.184;2024-02-16T04:42:52;10.90;99.90
46608;DHT22;32330;51.936;7.184;2024-02-16T04:45:19;10.90;99.90
46608;DHT22;32330;51.936;7.184;2024-02-16T04:47:46;10.90;99.90
46608;DHT22;32330;51.936;7.184;2024-02-16T04:50:14;10.90;99.90
46608;DHT22;32330;51.936;7.184;2024-02-16T04:52:41;10.90;99.90
46608;DHT22;32330;51.936;7.184;2024-02-16T04:55:09;10.90;99.90
46608;DHT22;32330;51.936;7.184;2024-02-16T04:57:38;10.90;99.90
46608;DHT22;32330;51.936;7.184;2024-02-16T05:00:06;10.90;99.90
46608;DHT22;32330;51.936;7.184;2024-02-16T05:02:35;10.90;99.90
46608;DHT22;32330;51.936;7.184;2024-02-16T05:05:02;10.90;99.90
46608;DHT22;32330;51.936;7.184;2024-02-16T05:07:29;10.90;99.90
46608;DHT22;32330;51.936;7.184;2024-02-16T05:09:57;10.90;99.90
46608;DHT22;32330;51.936;7.184;2024-02-16T05:12:24;10.90;99.90
46608;DHT22;32330;51.936;7.184;2024-02-16T05:14:53;10.90;99.90
46608;DHT22;32330;51.936;7.184;2024-02-16T05:17:21;10.80;99.90
46608;DHT22;32330;51.936;7.184;2024-02-16T05:19:48;10.80;99.90
46608;DHT22;32330;51.936;7.184;2024-02-16T05:22:15;10.90;99.90
46608;DHT22;32330;51.936;7.184;2024-02-16T05:24:44;10.80;99.90
46608;DHT22;32330;51.936;7.184;2024-02-16T05:27:11;10.80;99.90
46608;DHT22;32330;51.936;7.184;2024-02-16T05:29:39;10.80;99.90
46608;DHT22;32330;51.936;7.184;2024-02-16T05:32:07;10.80;99.90
46608;DHT22;32330;51.936;7.184;2024-02-16T05:34:36;10.80;99.90
46608;DHT22;32330;51.936;7.184;2024-02-16T05:37:04;10.80;99.90
46608;DHT22;32330;51.936;7.184;2024-02-16T05:39:33;10.80;99.90
46608;DHT22;32330;51.936;7.184;2024-02-16T05:42:02;10.80;99.90
46608;DHT22;32330;51.936;7.184;2024-02-16T05:44:29;10.80;99.90
46608;DHT22;32330;51.936;7.184;2024-02-16T05:46:58;10.80;99.90
46608;DHT22;32330;51.936;7.184;2024-02-16T05:49:27;10.70;99.90
46608;DHT22;32330;51.936;7.184;2024-02-16T05:51:56;10.70;99.90
46608;DHT22;32330;51.936;7.184;2024-02-16T05:54:43;10.70;99.90
46608;DHT22;32330;51.936;7.184;2024-02-16T05:57:10;10.70;99.90
46608;DHT22;32330;51.936;7.184;2024-02-16T05:59:53;10.70;99.90
46608;DHT22;32330;51.936;7.184;2024-02-16T06:02:26;10.70;99.90
46608;DHT22;32330;51.936;7.184;2024-02-16T06:04:55;10.70;99.90
46608;DHT22;32330;51.936;7.184;2024-02-16T06:07:22;10.70;99.90
46608;DHT22;32330;51.936;7.184;2024-02-16T06:09:49;10.70;99.90
46608;DHT22;32330;51.936;7.184;2024-02-16T06:12:17;10.70;99.90
46608;DHT22;32330;51.936;7.184;2024-02-16T06:14:44;10.70;99.90
46608;DHT22;32330;51.936;7.184;2024-02-16T06:17:14;10.80;99.90
46608;DHT22;32330;51.936;7.184;2024-02-16T06:19:42;10.80;99.90
46608;DHT22;32330;51.936;7.184;2024-02-16T06:22:11;10.80;99.90
46608;DHT22;32330;51.936;7.184;2024-02-16T06:24:38;10.80;99.90
46608;DHT22;32330;51.936;7.184;2024-02-16T06:27:05;10.80;99.90
46608;DHT22;32330;51.936;7.184;2024-02-16T06:29:34;10.80;99.90
46608;DHT22;32330;51.936;7.184;2024-02-16T06:32:05;10.90;99.90
46608;DHT22;32330;51.936;7.184;2024-02-16T06:34:36;10.90;99.90
46608;DHT22;32330;51.936;7.184;2024-02-16T06:37:04;10.90;99.90
46608;DHT22;32330;51.936;7.184;2024-02-16T06:39:32;10.90;99.90
46608;DHT22;32330;51.936;7.184;2024-02-16T06:41:59;10.90;99.90
46608;DHT22;32330;51.936;7.184;2024-02-16T06:44:27;10.90;99.90
46608;DHT22;32330;51.936;7.184;2024-02-16T06:46:54;10.90;99.90
46608;DHT22;32330;51.936;7.184;2024-02-16T06:49:21;10.90;99.90
46608;DHT22;32330;51.936;7.184;2024-02-16T06:51:48;10.90;99.90
46608;DHT22;32330;51.936;7.184;2024-02-16T06:54:15;11.00;99.90
46608;DHT22;32330;51.936;7.184;2024-02-16T06:56:43;11.00;99.90
46608;DHT22;32330;51.936;7.184;2024-02-16T06:59:10;11.00;99.90
46608;DHT22;32330;51.936;7.184;2024-02-16T07:01:37;11.00;99.90
46608;DHT22;32330;51.936;7.184;2024-02-16T07:04:04;11.10;99.90
46608;DHT22;32330;51.936;7.184;2024-02-16T07:06:31;11.00;99.90
46608;DHT22;32330;51.936;7.184;2024-02-16T07:08:58;11.10;99.90
46608;DHT22;32330;51.936;7.184;2024-02-16T07:11:26;11.10;99.90
46608;DHT22;32330;51.936;7.184;2024-02-16T07:13:54;11.10;99.90
46608;DHT22;32330;51.936;7.184;2024-02-16T07:16:21;11.10;99.90
46608;DHT22;32330;51.936;7.184;2024-02-16T07:18:48;11.10;99.90
46608;DHT22;32330;51.936;7.184;2024-02-16T07:21:15;11.10;99.90
46608;DHT22;32330;51.936;7.184;2024-02-16T07:23:46;11.20;99.90
46608;DHT22;32330;51.936;7.184;2024-02-16T07:26:13;11.20;99.90
46608;DHT22;32330;51.936;7.184;2024-02-16T07:28:42;11.20;99.90
46608;DHT22;32330;51.936;7.184;2024-02-16T07:31:11;11.20;99.90
46608;DHT22;32330;51.936;7.184;2024-02-16T07:33:40;11.20;99.90
46608;DHT22;32330;51.936;7.184;2024-02-16T07:36:07;11.20;99.90
46608;DHT22;32330;51.936;7.184;2024-02-16T07:38:35;11.30;99.90
46608;DHT22;32330;51.936;7.184;2024-02-16T07:41:02;11.30;99.90
46608;DHT22;32330;51.936;7.184;2024-02-16T07:43:30;11.30;99.90
46608;DHT22;32330;51.936;7.184;2024-02-16T07:45:57;11.30;99.90
46608;DHT22;32330;51.936;7.184;2024-02-16T07:48:26;11.30;99.90
46608;DHT22;32330;51.936;7.184;2024-02-16T07:50:54;11.40;99.90
46608;DHT22;32330;51.936;7.184;2024-02-16T07:53:23;11.50;99.90
46608;DHT22;32330;51.936;7.184;2024-02-16T07:55:51;11.60;99.90
46608;DHT22;32330;51.936;7.184;2024-02-16T07:58:18;11.70;99.90
46608;DHT22;32330;51.936;7.184;2024-02-16T08:00:45;11.80;99.90
46608;DHT22;32330;51.936;7.184;2024-02-16T08:03:12;11.90;99.90
46608;DHT22;32330;51.936;7.184;2024-02-16T08:05:40;12.00;99.90
46608;DHT22;32330;51.936;7.184;2024-02-16T08:08:07;12.20;99.90
46608;DHT22;32330;51.936;7.184;2024-02-16T08:10:37;12.20;99.90
46608;DHT22;32330;51.936;7.184;2024-02-16T08:13:04;12.30;99.90
46608;DHT22;32330;51.936;7.184;2024-02-16T08:15:32;12.40;99.90
46608;DHT22;32330;51.936;7.184;2024-02-16T08:17:59;12.60;99.90
46608;DHT22;32330;51.936;7.184;2024-02-16T08:20:26;12.70;99.90
46608;DHT22;32330;51.936;7.184;2024-02-16T08:22:54;12.80;99.90
46608;DHT22;32330;51.936;7.184;2024-02-16T08:25:21;12.80;99.90
46608;DHT22;32330;51.936;7.184;2024-02-16T08:27:48;12.90;99.90
46608;DHT22;32330;51.936;7.184;2024-02-16T08:30:16;12.90;99.90
46608;DHT22;32330;51.936;7.184;2024-02-16T08:32:44;13.00;99.90
46608;DHT22;32330;51.936;7.184;2024-02-16T08:35:11;13.00;99.90
46608;DHT22;32330;51.936;7.184;2024-02-16T08:37:40;13.10;99.90
46608;DHT22;32330;51.936;7.184;2024-02-16T08:40:10;13.10;99.90
46608;DHT22;32330;51.936;7.184;2024-02-16T08:42:40;13.10;99.90
46608;DHT22;32330;51.936;7.184;2024-02-16T08:45:08;13.20;99.90
46608;DHT22;32330;51.936;7.184;2024-02-16T08:47:35;13.20;99.90
46608;DHT22;32330;51.936;7.184;2024-02-16T08:50:05;13.20;99.90
46608;DHT22;32330;51.936;7.184;2024-02-16T08:52:32;13.20;99.90
46608;DHT22;32330;51.936;7.184;2024-02-16T08:54:59;13.30;99.90
46608;DHT22;32330;51.936;7.184;2024-02-16T08:57:28;13.30;99.90
46608;DHT22;32330;51.936;7.184;2024-02-16T08:59:55;13.30;99.90
46608;DHT22;32330;51.936;7.184;2024-02-16T09:02:22;13.30;99.90
46608;DHT22;32330;51.936;7.184;2024-02-16T09:04:49;13.40;99.90
46608;DHT22;32330;51.936;7.184;2024-02-16T09:07:16;13.40;99.90
46608;DHT22;32330;51.936;7.184;2024-02-16T09:09:43;13.30;99.90
46608;DHT22;32330;51.936;7.184;2024-02-16T09:12:10;13.40;99.90
46608;DHT22;32330;51.936;7.184;2024-02-16T09:14:39;13.40;99.90
46608;DHT22;32330;51.936;7.184;2024-02-16T09:17:06;13.50;99.90
46608;DHT22;32330;51.936;7.184;2024-02-16T09:19:33;13.50;99.90
46608;DHT22;32330;51.936;7.184;2024-02-16T09:22:00;13.50;99.90
46608;DHT22;32330;51.936;7.184;2024-02-16T09:24:29;13.60;99.90
46608;DHT22;32330;51.936;7.184;2024-02-16T09:26:56;13.60;99.90
46608;DHT22;32330;51.936;7.184;2024-02-16T09:29:24;13.60;99.90
46608;DHT22;32330;51.936;7.184;2024-02-16T09:31:52;13.70;99.90
46608;DHT22;32330;51.936;7.184;2024-02-16T09:34:20;13.70;99.90
46608;DHT22;32330;51.936;7.184;2024-02-16T09:36:47;13.70;99.90
46608;DHT22;32330;51.936;7.184;2024-02-16T09:39:14;13.70;99.90
46608;DHT22;32330;51.936;7.184;2024-02-16T09:41:42;13.80;99.90
46608;DHT22;32330;51.936;7.184;2024-02-16T09:44:09;13.80;99.90
46608;DHT22;32330;51.936;7.184;2024-02-16T09:46:37;13.80;99.90
46608;DHT22;32330;51.936;7.184;2024-02-16T09:49:05;13.80;99.90
46608;DHT22;32330;51.936;7.184;2024-02-16T09:51:36;13.90;99.90
46608;DHT22;32330;51.936;7.184;2024-02-16T09:54:04;13.90;99.90
46608;DHT22;32330;51.936;7.184;2024-02-16T09:56:32;13.90;99.90
46608;DHT22;32330;51.936;7.184;2024-02-16T09:59:00;14.00;99.90
46608;DHT22;32330;51.936;7.184;2024-02-16T10:01:27;14.00;99.90
46608;DHT22;32330;51.936;7.184;2024-02-16T10:03:54;14.00;99.90
46608;DHT22;32330;51.936;7.184;2024-02-16T10:06:22;14.00;99.90
46608;DHT22;32330;51.936;7.184;2024-02-16T10:08:50;14.10;99.90
46608;DHT22;32330;51.936;7.184;2024-02-16T10:11:19;14.10;99.90
46608;DHT22;32330;51.936;7.184;2024-02-16T10:13:56;14.20;99.90
46608;DHT22;32330;51.936;7.184;2024-02-16T10:16:24;14.20;99.90
46608;DHT22;32330;51.936;7.184;2024-02-16T10:18:51;14.30;99.90
46608;DHT22;32330;51.936;7.184;2024-02-16T10:21:26;14.40;99.90
46608;DHT22;32330;51.936;7.184;2024-02-16T10:24:01;14.40;99.90
46608;DHT22;32330;51.936;7.184;2024-02-16T10:26:30;14.40;99.90
46608;DHT22;32330;51.936;7.184;2024-02-16T10:28:58;14.40;99.90
46608;DHT22;32330;51.936;7.184;2024-02-16T10:31:25;14.40;99.90
46608;DHT22;32330;51.936;7.184;2024-02-16T10:33:58;14.50;99.90
46608;DHT22;32330;51.936;7.184;2024-02-16T10:36:27;14.50;99.90
46608;DHT22;32330;51.936;7.184;2024-02-16T10:38:55;14.50;99.90
46608;DHT22;32330;51.936;7.184;2024-02-16T10:41:26;14.50;99.90
46608;DHT22;32330;51.936;7.184;2024-02-16T10:43:55;14.60;99.90
46608;DHT22;32330;51.936;7.184;2024-02-16T10:46:23;14.60;99.90
46608;DHT22;32330;51.936;7.184;2024-02-16T10:48:50;14.60;99.90
46608;DHT22;32330;51.936;7.184;2024-02-16T10:51:21;14.60;99.90
46608;DHT22;32330;51.936;7.184;2024-02-16T10:53:52;14.50;99.90
46608;DHT22;32330;51.936;7.184;2024-02-16T10:56:28;14.50;99.90
46608;DHT22;32330;51.936;7.184;2024-02-16T10:59:00;14.40;99.90
46608;DHT22;32330;51.936;7.184;2024-02-16T11:01:31;14.40;99.90
46608;DHT22;32330;51.936;7.184;2024-02-16T11:04:02;14.40;99.90
46608;DHT22;32330;51.936;7.184;2024-02-16T11:06:29;14.40;99.90
46608;DHT22;32330;51.936;7.184;2024-02-16T11:09:03;14.40;99.90
46608;DHT22;32330;51.936;7.184;2024-02-16T11:11:36;14.40;99.90
46608;DHT22;32330;51.936;7.184;2024-02-16T11:14:14;14.40;99.90
46608;DHT22;32330;51.936;7.184;2024-02-16T11:16:44;14.40;99.90
46608;DHT22;32330;51.936;7.184;2024-02-16T11:19:11;14.40;99.90
46608;DHT22;32330;51.936;7.184;2024-02-16T11:21:57;14.50;99.90
46608;DHT22;32330;51.936;7.184;2024-02-16T11:24:33;14.50;99.90
46608;DHT22;32330;51.936;7.184;2024-02-16T11:27:04;14.40;99.90
46608;DHT22;32330;51.936;7.184;2024-02-16T11:29:32;14.50;99.90
46608;DHT22;32330;51.936;7.184;2024-02-16T11:32:00;14.40;99.90
46608;DHT22;32330;51.936;7.184;2024-02-16T11:34:28;14.40;99.90
46608;DHT22;32330;51.936;7.184;2024-02-16T11:36:56;14.50;99.90
46608;DHT22;32330;51.936;7.184;2024-02-16T11:39:25;14.50;99.90
46608;DHT22;32330;51.936;7.184;2024-02-16T11:42:01;14.40;99.90
46608;DHT22;32330;51.936;7.184;2024-02-16T11:44:29;14.40;99.90
46608;DHT22;32330;51.936;7.184;2024-02-16T11:46:57;14.50;99.90
46608;DHT22;32330;51.936;7.184;2024-02-16T11:49:25;14.50;99.90
46608;DHT22;32330;51.936;7.184;2024-02-16T11:51:52;14.40;99.90
46608;DHT22;32330;51.936;7.184;2024-02-16T11:54:19;14.40;99.90
46608;DHT22;32330;51.936;7.184;2024-02-16T11:56:47;14.40;99.90
46608;DHT22;32330;51.936;7.184;2024-02-16T11:59:18;14.30;99.90
46608;DHT22;32330;51.936;7.184;2024-02-16T12:01:53;14.30;99.90
46608;DHT22;32330;51.936;7.184;2024-02-16T12:04:22;14.30;99.90
46608;DHT22;32330;51.936;7.184;2024-02-16T12:06:55;14.30;99.90
46608;DHT22;32330;51.936;7.184;2024-02-16T12:09:23;14.20;99.90
46608;DHT22;32330;51.936;7.184;2024-02-16T12:11:50;14.20;99.90
46608;DHT22;32330;51.936;7.184;2024-02-16T12:14:21;14.20;99.90
46608;DHT22;32330;51.936;7.184;2024-02-16T12:16:48;14.10;99.90
46608;DHT22;32330;51.936;7.184;2024-02-16T12:19:15;14.00;99.90
46608;DHT22;32330;51.936;7.184;2024-02-16T12:21:43;14.00;99.90
46608;DHT22;32330;51.936;7.184;2024-02-16T12:24:10;14.00;99.90
46608;DHT22;32330;51.936;7.184;2024-02-16T12:26:37;13.90;99.90
46608;DHT22;32330;51.936;7.184;2024-02-16T12:29:05;13.90;99.90
46608;DHT22;32330;51.936;7.184;2024-02-16T12:31:34;13.90;99.90
46608;DHT22;32330;51.936;7.184;2024-02-16T12:34:03;13.80;99.90
46608;DHT22;32330;51.936;7.184;2024-02-16T12:36:32;13.80;99.90
46608;DHT22;32330;51.936;7.184;2024-02-16T12:38:59;13.80;99.90
46608;DHT22;32330;51.936;7.184;2024-02-16T12:41:26;13.80;99.90
46608;DHT22;32330;51.936;7.184;2024-02-16T12:43:54;13.70;99.90
46608;DHT22;32330;51.936;7.184;2024-02-16T12:46:22;13.70;99.90
46608;DHT22;32330;51.936;7.184;2024-02-16T12:48:50;13.70;99.90
46608;DHT22;32330;51.936;7.184;2024-02-16T12:51:18;13.70;99.90
46608;DHT22;32330;51.936;7.184;2024-02-16T12:53:45;13.60;99.90
46608;DHT22;32330;51.936;7.184;2024-02-16T12:56:12;13.60;99.90
46608;DHT22;32330;51.936;7.184;2024-02-16T12:58:39;13.60;99.90
46608;DHT22;32330;51.936;7.184;2024-02-16T13:01:06;13.50;99.90
46608;DHT22;32330;51.936;7.184;2024-02-16T13:03:34;13.50;99.90
46608;DHT22;32330;51.936;7.184;2024-02-16T13:06:03;13.50;99.90
46608;DHT22;32330;51.936;7.184;2024-02-16T13:08:31;13.50;99.90
46608;DHT22;32330;51.936;7.184;2024-02-16T13:10:58;13.40;99.90
46608;DHT22;32330;51.936;7.184;2024-02-16T13:13:25;13.40;99.90
46608;DHT22;32330;51.936;7.184;2024-02-16T13:15:52;13.40;99.90
46608;DHT22;32330;51.936;7.184;2024-02-16T13:18:19;13.40;99.90
46608;DHT22;32330;51.936;7.184;2024-02-16T13:20:46;13.30;99.90
46608;DHT22;32330;51.936;7.184;2024-02-16T13:23:15;13.30;99.90
46608;DHT22;32330;51.936;7.184;2024-02-16T13:25:42;13.40;99.90
46608;DHT22;32330;51.936;7.184;2024-02-16T13:28:09;13.30;99.90
46608;DHT22;32330;51.936;7.184;2024-02-16T13:30:36;13.30;99.90
46608;DHT22;32330;51.936;7.184;2024-02-16T13:33:05;13.30;99.90
46608;DHT22;32330;51.936;7.184;2024-02-16T13:35:34;13.30;99.90
46608;DHT22;32330;51.936;7.184;2024-02-16T13:38:03;13.20;99.90
46608;DHT22;32330;51.936;7.184;2024-02-16T13:40:32;13.20;99.90
46608;DHT22;32330;51.936;7.184;2024-02-16T13:43:01;13.20;99.90
46608;DHT22;32330;51.936;7.184;2024-02-16T13:45:30;13.20;99.90
46608;DHT22;32330;51.936;7.184;2024-02-16T13:48:12;13.20;99.90
46608;DHT22;32330;51.936;7.184;2024-02-16T13:50:39;13.20;99.90
46608;DHT22;32330;51.936;7.184;2024-02-16T13:53:06;13.20;99.90
46608;DHT22;32330;51.936;7.184;2024-02-16T13:55:34;13.20;99.90
46608;DHT22;32330;51.936;7.184;2024-02-16T13:58:02;13.20;99.90
46608;DHT22;32330;51.936;7.184;2024-02-16T14:00:29;13.10;99.90
46608;DHT22;32330;51.936;7.184;2024-02-16T14:02:56;13.10;99.90
46608;DHT22;32330;51.936;7.184;2024-02-16T14:05:23;13.10;99.90
46608;DHT22;32330;51.936;7.184;2024-02-16T14:07:51;13.00;99.90
46608;DHT22;32330;51.936;7.184;2024-02-16T14:10:18;13.00;99.90
46608;DHT22;32330;51.936;7.184;2024-02-16T14:12:47;13.00;99.90
46608;DHT22;32330;51.936;7.184;2024-02-16T14:15:14;13.00;99.90
46608;DHT22;32330;51.936;7.184;2024-02-16T14:17:42;13.00;99.90
46608;DHT22;32330;51.936;7.184;2024-02-16T14:20:10;13.00;99.90
46608;DHT22;32330;51.936;7.184;2024-02-16T14:22:37;13.00;99.90
46608;DHT22;32330;51.936;7.184;2024-02-16T14:25:04;13.00;99.90
46608;DHT22;32330;51.936;7.184;2024-02-16T14:27:31;13.00;99.90
46608;DHT22;32330;51.936;7.184;2024-02-16T14:30:03;13.00;99.90
46608;DHT22;32330;51.936;7.184;2024-02-16T14:32:30;13.00;99.90
46608;DHT22;32330;51.936;7.184;2024-02-16T14:34:57;13.00;99.90
46608;DHT22;32330;51.936;7.184;2024-02-16T14:37:24;13.00;99.90
46608;DHT22;32330;51.936;7.184;2024-02-16T14:39:53;12.90;99.90
46608;DHT22;32330;51.936;7.184;2024-02-16T14:42:23;12.90;99.90
46608;DHT22;32330;51.936;7.184;2024-02-16T14:44:50;12.90;99.90
46608;DHT22;32330;51.936;7.184;2024-02-16T14:47:18;12.90;99.90
46608;DHT22;32330;51.936;7.184;2024-02-16T14:49:47;12.90;99.90
46608;DHT22;32330;51.936;7.184;2024-02-16T14:52:14;12.90;99.90
46608;DHT22;32330;51.936;7.184;2024-02-16T14:54:41;12.90;99.90
46608;DHT22;32330;51.936;7.184;2024-02-16T14:57:08;12.80;99.90
46608;DHT22;32330;51.936;7.184;2024-02-16T14:59:35;12.90;99.90
46608;DHT22;32330;51.936;7.184;2024-02-16T15:02:03;12.90;99.90
46608;DHT22;32330;51.936;7.184;2024-02-16T15:04:31;12.90;99.90
46608;DHT22;32330;51.936;7.184;2024-02-16T15:06:58;12.90;99.90
46608;DHT22;32330;51.936;7.184;2024-02-16T15:09:26;12.90;99.90
46608;DHT22;32330;51.936;7.184;2024-02-16T15:11:53;13.00;99.90
46608;DHT22;32330;51.936;7.184;2024-02-16T15:14:20;12.90;99.90
46608;DHT22;32330;51.936;7.184;2024-02-16T15:16:47;12.90;99.90
46608;DHT22;32330;51.936;7.184;2024-02-16T15:19:14;12.90;99.90
46608;DHT22;32330;51.936;7.184;2024-02-16T15:21:42;12.90;99.90
46608;DHT22;32330;51.936;7.184;2024-02-16T15:24:10;12.80;99.90
46608;DHT22;32330;51.936;7.184;2024-02-16T15:26:37;12.80;99.90
46608;DHT22;32330;51.936;7.184;2024-02-16T15:29:04;12.80;99.90
46608;DHT22;32330;51.936;7.184;2024-02-16T15:31:31;12.80;99.90
46608;DHT22;32330;51.936;7.184;2024-02-16T15:33:59;12.80;99.90
46608;DHT22;32330;51.936;7.184;2024-02-16T15:36:26;12.70;99.90